Ferrell, Antarctica

12:08 AM GMT on August 23, 2014 (GMT +0000)
Williams Field | Change Station
CLOSE
Current Station
Airport
Location: Williams Field,
Elevation: 79 ft
Nearby Weather Stations

Elev 79 ft 77.85 °S, 166.67 °E | Updated 13 minutes ago

Light Snow
Light Snow Ice Crystals
-8 °F
Feels Like -28 °F
N
13
Wind Variable Wind from ENE

Today
High -- | Low -- °F
--% Chance of Precip.
Yesterday
High -- | Low -- °F
Precip. -- in
10:46 PM 2:35 AM
Waning Crescent, 6% visible
Pressure 28.87 in
Visibility 5.6 miles
Clouds Overcast 2000 ft
Windchill -28 °F
Dew Point -17 °F
Humidity 65%
Rainfall 0.00 in
Snow Depth Not available.
UV 0 out of 12
Pollen Not available.
Air Quality Not available.
Flu Activity Not available.
METAR NZCM 222355Z 07011KT 9000 -SN IC OVC020 M22/M27 A2885 RMK SNB1900 SLP775

More Conditions Fewer Conditions

Pressure 28.87 in
Visibility 5.6 miles
Clouds Overcast 2000 ft
Windchill -28 °F
Dew Point -17 °F
Humidity 65%
Rainfall 0.00 in
Snow Depth Not available.
UV 0 out of 12
Pollen Not available.
Air Quality Not available.
Flu Activity Not available.
METAR NZCM 222355Z 07011KT 9000 -SN IC OVC020 M22/M27 A2885 RMK SNB1900 SLP775

More Conditions Fewer Conditions

10-Day Weather Forecast

Almanac

Astronomy

Aug. 23, 2014 Rise Set
Actual Time 10:46 PM GMT 2:35 AM GMT
Civil Twilight 8:25 PM GMT 4:56 AM GMT
Nautical Twilight 6:27 PM GMT 6:55 AM GMT
Astronomical Twilight 4:28 PM GMT 8:55 AM GMT
Moon No Moon Rise No Moon Set
Length of Visible Light 8h 30m
Length of Day
3h 49m
Tomorrow will be 25m 59s longer.
Waning Crescent, 6% of the Moon is Illuminated
Aug 22
Waning Crescent
Aug 25
New
Sep 2
First Quarter
Sep 8
Full
Sep 15
Last Quarter

Yesterday's Extremes

Country Highs Country Lows

Community

WunderPhotos

Upload Photos

1,746,314 photos uploaded!

WunderBlogs® & News

By Dr. Jeff Masters
Director of Meteorology, Weather Underground
By Kari Strenfel
Meteorologist, Weather Underground
By Christopher C. Burt
Weather Historian, Weather Underground
August 22, 2014
August 22, 2014
August 22, 2014

Nearby

Snow Depth

Not available.

Earthquake Activity

City Distance Mag. Time & Date
No recent earthquake activity has been reported nearby.
Minimum magnitude displayed is 2.5.

Coastal Water Temperatures

Place Temperature
No Stations Reporting

Nearby Weather Stations